Ana Sayfa
METAR-TAF:

METAR-TAF

Havaalanları :

Broken Bow, Nebraska, Amerika Birleşik Devletleri

Enlem: 41-26N, Boylam: 099-39W, yükseklik: 776 m

Güncel hava durumu gözlemi

Rapor saat 11:53 UTC de 42 dakika önce yapıldı.
Sakin rüzgar
Sıcaklık 4°C
Nem 87%
Basınç 1011 hPa
Görüş mesafesi: 16.1 km
Açık gökyüzü

METAR: KBBW 131153Z AUTO 00000KT 10SM CLR 04/02 A2986 RMK AO2 SLP107 T00390017 10111 20033 56014

Saat: 07:35 (12:35 UTC)


TAF: eksik

4.000'den fazla havaalanı için hava durumu gözlemleri ve tahminleri (METAR ve TAF raporları).

Kullanılabilir istasyonlar harita üzerinde sarı ve kırmızı noktalarla gösterilir.

İstasyonun adını görmek için fareyi noktanın üzerinde gezdirin.

Sonrasında hava gözlem ve tahminlerini görmek için tıklayın.

Haritayı değiştirmek için: yaklaştırmak için siyah artı işaretli yeşil düğmeye ve uzaklaştırmak için de eksi işaretli düğmeye hızla tıklayın; bitişik haritalar için yeşil okları kullanın.


METAR-TAF: